sensor_id;sensor_type;location;lat;lon;timestamp;temperature;humidity
13521;DHT22;6832;51.186;3.236;2022-10-16T00:01:51;17.70;72.50
13521;DHT22;6832;51.186;3.236;2022-10-16T00:04:30;17.60;72.40
13521;DHT22;6832;51.186;3.236;2022-10-16T00:07:03;17.60;72.60
13521;DHT22;6832;51.186;3.236;2022-10-16T00:09:30;17.60;72.50
13521;DHT22;6832;51.186;3.236;2022-10-16T00:11:58;17.50;72.30
13521;DHT22;6832;51.186;3.236;2022-10-16T00:14:41;17.50;72.70
13521;DHT22;6832;51.186;3.236;2022-10-16T00:17:17;17.50;72.80
13521;DHT22;6832;51.186;3.236;2022-10-16T00:19:46;17.50;72.90
13521;DHT22;6832;51.186;3.236;2022-10-16T00:22:15;17.50;73.10
13521;DHT22;6832;51.186;3.236;2022-10-16T00:24:44;17.50;72.90
13521;DHT22;6832;51.186;3.236;2022-10-16T00:27:16;17.50;73.20
13521;DHT22;6832;51.186;3.236;2022-10-16T00:29:59;17.50;73.10
13521;DHT22;6832;51.186;3.236;2022-10-16T00:32:28;17.40;73.60
13521;DHT22;6832;51.186;3.236;2022-10-16T00:34:58;17.40;73.40
13521;DHT22;6832;51.186;3.236;2022-10-16T00:37:28;17.40;73.50
13521;DHT22;6832;51.186;3.236;2022-10-16T00:39:56;17.40;73.40
13521;DHT22;6832;51.186;3.236;2022-10-16T00:42:24;17.30;73.20
13521;DHT22;6832;51.186;3.236;2022-10-16T00:44:55;17.30;73.70
13521;DHT22;6832;51.186;3.236;2022-10-16T00:47:27;17.30;74.00
13521;DHT22;6832;51.186;3.236;2022-10-16T00:50:01;17.30;74.00
13521;DHT22;6832;51.186;3.236;2022-10-16T00:52:42;17.30;74.10
13521;DHT22;6832;51.186;3.236;2022-10-16T00:55:11;17.30;74.50
13521;DHT22;6832;51.186;3.236;2022-10-16T00:57:45;17.20;74.20
13521;DHT22;6832;51.186;3.236;2022-10-16T01:00:21;17.20;74.70
13521;DHT22;6832;51.186;3.236;2022-10-16T01:02:54;17.10;74.90
13521;DHT22;6832;51.186;3.236;2022-10-16T01:05:23;17.20;75.20
13521;DHT22;6832;51.186;3.236;2022-10-16T01:08:08;17.10;75.30
13521;DHT22;6832;51.186;3.236;2022-10-16T01:10:40;17.10;76.10
13521;DHT22;6832;51.186;3.236;2022-10-16T01:13:17;17.10;75.80
13521;DHT22;6832;51.186;3.236;2022-10-16T01:15:54;17.10;76.00
13521;DHT22;6832;51.186;3.236;2022-10-16T01:18:30;17.10;76.50
13521;DHT22;6832;51.186;3.236;2022-10-16T01:21:17;17.10;76.40
13521;DHT22;6832;51.186;3.236;2022-10-16T01:23:59;17.10;76.70
13521;DHT22;6832;51.186;3.236;2022-10-16T01:29:45;17.10;77.50
13521;DHT22;6832;51.186;3.236;2022-10-16T01:32:19;17.10;77.90
13521;DHT22;6832;51.186;3.236;2022-10-16T01:35:03;17.10;77.60
13521;DHT22;6832;51.186;3.236;2022-10-16T01:38:02;17.10;78.20
13521;DHT22;6832;51.186;3.236;2022-10-16T01:40:46;17.10;77.60
13521;DHT22;6832;51.186;3.236;2022-10-16T01:43:17;17.10;78.20
13521;DHT22;6832;51.186;3.236;2022-10-16T01:45:52;17.10;77.90
13521;DHT22;6832;51.186;3.236;2022-10-16T01:48:27;17.10;78.50
13521;DHT22;6832;51.186;3.236;2022-10-16T01:51:07;17.10;78.40
13521;DHT22;6832;51.186;3.236;2022-10-16T01:53:40;17.00;78.20
13521;DHT22;6832;51.186;3.236;2022-10-16T01:56:17;17.10;78.20
13521;DHT22;6832;51.186;3.236;2022-10-16T01:58:49;17.10;78.90
13521;DHT22;6832;51.186;3.236;2022-10-16T02:01:33;17.00;78.40
13521;DHT22;6832;51.186;3.236;2022-10-16T02:04:17;17.10;79.30
13521;DHT22;6832;51.186;3.236;2022-10-16T02:06:49;17.10;79.30
13521;DHT22;6832;51.186;3.236;2022-10-16T02:09:20;17.10;78.80
13521;DHT22;6832;51.186;3.236;2022-10-16T02:11:50;17.10;79.20
13521;DHT22;6832;51.186;3.236;2022-10-16T02:14:36;17.10;79.20
13521;DHT22;6832;51.186;3.236;2022-10-16T02:17:12;17.10;79.20
13521;DHT22;6832;51.186;3.236;2022-10-16T02:19:41;17.00;79.50
13521;DHT22;6832;51.186;3.236;2022-10-16T02:22:17;17.10;79.30
13521;DHT22;6832;51.186;3.236;2022-10-16T02:24:55;17.10;79.80
13521;DHT22;6832;51.186;3.236;2022-10-16T02:27:28;17.10;80.00
13521;DHT22;6832;51.186;3.236;2022-10-16T02:33:19;17.10;79.90
13521;DHT22;6832;51.186;3.236;2022-10-16T02:35:52;17.00;79.60
13521;DHT22;6832;51.186;3.236;2022-10-16T02:38:22;17.00;79.50
13521;DHT22;6832;51.186;3.236;2022-10-16T02:40:51;17.00;79.30
13521;DHT22;6832;51.186;3.236;2022-10-16T02:43:25;17.00;79.30
13521;DHT22;6832;51.186;3.236;2022-10-16T02:45:54;17.00;79.90
13521;DHT22;6832;51.186;3.236;2022-10-16T02:48:27;17.00;79.70
13521;DHT22;6832;51.186;3.236;2022-10-16T02:50:57;17.00;80.00
13521;DHT22;6832;51.186;3.236;2022-10-16T02:53:25;17.00;79.40
13521;DHT22;6832;51.186;3.236;2022-10-16T02:56:03;17.00;79.50
13521;DHT22;6832;51.186;3.236;2022-10-16T02:58:33;16.90;80.10
13521;DHT22;6832;51.186;3.236;2022-10-16T03:01:09;16.90;79.30
13521;DHT22;6832;51.186;3.236;2022-10-16T03:03:43;16.90;79.80
13521;DHT22;6832;51.186;3.236;2022-10-16T03:06:14;16.90;79.90
13521;DHT22;6832;51.186;3.236;2022-10-16T03:08:41;16.90;80.10
13521;DHT22;6832;51.186;3.236;2022-10-16T03:11:11;16.90;80.00
13521;DHT22;6832;51.186;3.236;2022-10-16T03:13:45;16.80;80.00
13521;DHT22;6832;51.186;3.236;2022-10-16T03:16:14;16.80;80.80
13521;DHT22;6832;51.186;3.236;2022-10-16T03:18:49;16.80;80.30
13521;DHT22;6832;51.186;3.236;2022-10-16T03:21:21;16.80;81.10
13521;DHT22;6832;51.186;3.236;2022-10-16T03:23:49;16.70;80.30
13521;DHT22;6832;51.186;3.236;2022-10-16T03:26:16;16.80;80.90
13521;DHT22;6832;51.186;3.236;2022-10-16T03:28:44;16.70;80.70
13521;DHT22;6832;51.186;3.236;2022-10-16T03:31:11;16.70;80.70
13521;DHT22;6832;51.186;3.236;2022-10-16T03:33:41;16.80;80.80
13521;DHT22;6832;51.186;3.236;2022-10-16T03:36:10;16.70;80.80
13521;DHT22;6832;51.186;3.236;2022-10-16T03:38:37;16.70;81.20
13521;DHT22;6832;51.186;3.236;2022-10-16T03:41:06;16.70;81.00
13521;DHT22;6832;51.186;3.236;2022-10-16T03:43:34;16.70;81.40
13521;DHT22;6832;51.186;3.236;2022-10-16T03:46:04;16.60;81.10
13521;DHT22;6832;51.186;3.236;2022-10-16T03:48:37;16.60;81.80
13521;DHT22;6832;51.186;3.236;2022-10-16T03:51:11;16.60;81.50
13521;DHT22;6832;51.186;3.236;2022-10-16T03:53:38;16.60;81.60
13521;DHT22;6832;51.186;3.236;2022-10-16T03:56:09;16.60;81.40
13521;DHT22;6832;51.186;3.236;2022-10-16T03:58:38;16.60;81.80
13521;DHT22;6832;51.186;3.236;2022-10-16T04:01:08;16.60;81.80
13521;DHT22;6832;51.186;3.236;2022-10-16T04:03:35;16.60;82.10
13521;DHT22;6832;51.186;3.236;2022-10-16T04:06:25;16.50;81.50
13521;DHT22;6832;51.186;3.236;2022-10-16T04:08:54;16.50;82.50
13521;DHT22;6832;51.186;3.236;2022-10-16T04:11:39;16.50;81.90
13521;DHT22;6832;51.186;3.236;2022-10-16T04:14:12;16.50;82.50
13521;DHT22;6832;51.186;3.236;2022-10-16T04:16:39;16.50;82.50
13521;DHT22;6832;51.186;3.236;2022-10-16T04:19:23;16.50;82.20
13521;DHT22;6832;51.186;3.236;2022-10-16T04:22:24;16.50;83.30
13521;DHT22;6832;51.186;3.236;2022-10-16T04:24:51;16.50;83.40
13521;DHT22;6832;51.186;3.236;2022-10-16T04:27:19;16.50;82.10
13521;DHT22;6832;51.186;3.236;2022-10-16T04:29:51;16.50;82.60
13521;DHT22;6832;51.186;3.236;2022-10-16T04:32:22;16.50;82.60
13521;DHT22;6832;51.186;3.236;2022-10-16T04:34:50;16.50;82.80
13521;DHT22;6832;51.186;3.236;2022-10-16T04:37:26;16.50;82.30
13521;DHT22;6832;51.186;3.236;2022-10-16T04:39:58;16.50;82.80
13521;DHT22;6832;51.186;3.236;2022-10-16T04:42:35;16.50;82.00
13521;DHT22;6832;51.186;3.236;2022-10-16T04:45:04;16.50;82.10
13521;DHT22;6832;51.186;3.236;2022-10-16T04:47:34;16.50;82.30
13521;DHT22;6832;51.186;3.236;2022-10-16T04:50:09;16.50;82.40
13521;DHT22;6832;51.186;3.236;2022-10-16T04:52:38;16.40;83.00
13521;DHT22;6832;51.186;3.236;2022-10-16T04:55:07;16.40;83.00
13521;DHT22;6832;51.186;3.236;2022-10-16T04:57:41;16.40;82.90
13521;DHT22;6832;51.186;3.236;2022-10-16T05:00:16;16.40;83.80
13521;DHT22;6832;51.186;3.236;2022-10-16T05:02:45;16.40;83.40
13521;DHT22;6832;51.186;3.236;2022-10-16T05:05:15;16.40;83.80
13521;DHT22;6832;51.186;3.236;2022-10-16T05:07:46;16.40;83.80
13521;DHT22;6832;51.186;3.236;2022-10-16T05:10:17;16.40;83.80
13521;DHT22;6832;51.186;3.236;2022-10-16T05:12:47;16.40;83.90
13521;DHT22;6832;51.186;3.236;2022-10-16T05:15:20;16.40;83.90
13521;DHT22;6832;51.186;3.236;2022-10-16T05:18:01;16.40;84.00
13521;DHT22;6832;51.186;3.236;2022-10-16T05:20:30;16.40;83.90
13521;DHT22;6832;51.186;3.236;2022-10-16T05:23:01;16.40;83.90
13521;DHT22;6832;51.186;3.236;2022-10-16T05:25:33;16.40;84.20
13521;DHT22;6832;51.186;3.236;2022-10-16T05:28:11;16.40;84.30
13521;DHT22;6832;51.186;3.236;2022-10-16T05:30:43;16.40;84.50
13521;DHT22;6832;51.186;3.236;2022-10-16T05:33:14;16.50;84.00
13521;DHT22;6832;51.186;3.236;2022-10-16T05:35:42;16.40;84.50
13521;DHT22;6832;51.186;3.236;2022-10-16T05:38:13;16.50;84.20
13521;DHT22;6832;51.186;3.236;2022-10-16T05:40:50;16.50;84.50
13521;DHT22;6832;51.186;3.236;2022-10-16T05:43:19;16.50;84.90
13521;DHT22;6832;51.186;3.236;2022-10-16T05:45:54;16.50;84.40
13521;DHT22;6832;51.186;3.236;2022-10-16T05:48:24;16.50;84.60
13521;DHT22;6832;51.186;3.236;2022-10-16T05:50:57;16.50;84.10
13521;DHT22;6832;51.186;3.236;2022-10-16T05:53:33;16.60;84.70
13521;DHT22;6832;51.186;3.236;2022-10-16T05:56:05;16.50;84.70
13521;DHT22;6832;51.186;3.236;2022-10-16T05:58:37;16.60;84.30
13521;DHT22;6832;51.186;3.236;2022-10-16T06:01:09;16.60;84.50
13521;DHT22;6832;51.186;3.236;2022-10-16T06:03:42;16.60;84.20
13521;DHT22;6832;51.186;3.236;2022-10-16T06:06:14;16.60;84.10
13521;DHT22;6832;51.186;3.236;2022-10-16T06:08:47;16.60;84.20
13521;DHT22;6832;51.186;3.236;2022-10-16T06:11:25;16.60;84.10
13521;DHT22;6832;51.186;3.236;2022-10-16T06:13:58;16.60;84.10
13521;DHT22;6832;51.186;3.236;2022-10-16T06:16:27;16.60;84.10
13521;DHT22;6832;51.186;3.236;2022-10-16T06:18:58;16.60;84.10
13521;DHT22;6832;51.186;3.236;2022-10-16T06:21:29;16.60;84.10
13521;DHT22;6832;51.186;3.236;2022-10-16T06:24:01;16.60;84.20
13521;DHT22;6832;51.186;3.236;2022-10-16T06:26:30;16.60;84.20
13521;DHT22;6832;51.186;3.236;2022-10-16T06:29:00;16.60;84.20
13521;DHT22;6832;51.186;3.236;2022-10-16T06:31:29;16.60;84.20
13521;DHT22;6832;51.186;3.236;2022-10-16T06:33:59;16.60;84.10
13521;DHT22;6832;51.186;3.236;2022-10-16T06:36:28;16.50;83.90
13521;DHT22;6832;51.186;3.236;2022-10-16T06:38:57;16.60;84.20
13521;DHT22;6832;51.186;3.236;2022-10-16T06:41:24;16.60;84.30
13521;DHT22;6832;51.186;3.236;2022-10-16T06:43:51;16.60;84.20
13521;DHT22;6832;51.186;3.236;2022-10-16T06:46:22;16.60;84.10
13521;DHT22;6832;51.186;3.236;2022-10-16T06:48:57;16.60;84.30
13521;DHT22;6832;51.186;3.236;2022-10-16T06:51:26;16.60;84.70
13521;DHT22;6832;51.186;3.236;2022-10-16T06:54:07;16.60;84.30
13521;DHT22;6832;51.186;3.236;2022-10-16T06:56:38;16.60;84.50
13521;DHT22;6832;51.186;3.236;2022-10-16T06:59:08;16.50;84.10
13521;DHT22;6832;51.186;3.236;2022-10-16T07:01:35;16.50;84.10
13521;DHT22;6832;51.186;3.236;2022-10-16T07:04:02;16.50;84.30
13521;DHT22;6832;51.186;3.236;2022-10-16T07:06:33;16.50;84.60
13521;DHT22;6832;51.186;3.236;2022-10-16T07:09:06;16.50;85.00
13521;DHT22;6832;51.186;3.236;2022-10-16T07:11:36;16.50;85.20
13521;DHT22;6832;51.186;3.236;2022-10-16T07:14:04;16.50;85.40
13521;DHT22;6832;51.186;3.236;2022-10-16T07:16:32;16.50;85.20
13521;DHT22;6832;51.186;3.236;2022-10-16T07:19:01;16.50;85.30
13521;DHT22;6832;51.186;3.236;2022-10-16T07:21:32;16.50;85.50
13521;DHT22;6832;51.186;3.236;2022-10-16T07:24:06;16.50;85.60
13521;DHT22;6832;51.186;3.236;2022-10-16T07:26:37;16.60;85.80
13521;DHT22;6832;51.186;3.236;2022-10-16T07:29:05;16.60;85.80
13521;DHT22;6832;51.186;3.236;2022-10-16T07:31:33;16.60;86.00
13521;DHT22;6832;51.186;3.236;2022-10-16T07:34:00;16.60;85.80
13521;DHT22;6832;51.186;3.236;2022-10-16T07:36:30;16.60;86.10
13521;DHT22;6832;51.186;3.236;2022-10-16T07:38:57;16.60;86.70
13521;DHT22;6832;51.186;3.236;2022-10-16T07:41:27;16.60;86.20
13521;DHT22;6832;51.186;3.236;2022-10-16T07:43:56;16.60;86.70
13521;DHT22;6832;51.186;3.236;2022-10-16T07:46:26;16.60;86.70
13521;DHT22;6832;51.186;3.236;2022-10-16T07:48:53;16.60;86.70
13521;DHT22;6832;51.186;3.236;2022-10-16T07:51:23;16.70;86.60
13521;DHT22;6832;51.186;3.236;2022-10-16T07:53:53;16.70;87.20
13521;DHT22;6832;51.186;3.236;2022-10-16T07:56:30;16.80;87.50
13521;DHT22;6832;51.186;3.236;2022-10-16T07:58:58;16.80;87.70
13521;DHT22;6832;51.186;3.236;2022-10-16T08:01:25;16.80;87.70
13521;DHT22;6832;51.186;3.236;2022-10-16T08:03:57;16.90;88.70
13521;DHT22;6832;51.186;3.236;2022-10-16T08:06:36;17.00;88.40
13521;DHT22;6832;51.186;3.236;2022-10-16T08:09:05;17.00;88.10
13521;DHT22;6832;51.186;3.236;2022-10-16T08:11:39;17.20;87.50
13521;DHT22;6832;51.186;3.236;2022-10-16T08:14:06;17.30;87.30
13521;DHT22;6832;51.186;3.236;2022-10-16T08:16:39;17.40;86.70
13521;DHT22;6832;51.186;3.236;2022-10-16T08:19:06;17.50;86.30
13521;DHT22;6832;51.186;3.236;2022-10-16T08:21:33;17.60;85.60
13521;DHT22;6832;51.186;3.236;2022-10-16T08:24:07;17.60;85.40
13521;DHT22;6832;51.186;3.236;2022-10-16T08:26:35;17.70;85.50
13521;DHT22;6832;51.186;3.236;2022-10-16T08:29:10;17.80;85.40
13521;DHT22;6832;51.186;3.236;2022-10-16T08:31:37;17.80;85.40
13521;DHT22;6832;51.186;3.236;2022-10-16T08:34:07;17.90;85.30
13521;DHT22;6832;51.186;3.236;2022-10-16T08:36:40;18.00;85.60
13521;DHT22;6832;51.186;3.236;2022-10-16T08:39:07;18.10;85.90
13521;DHT22;6832;51.186;3.236;2022-10-16T08:42:07;18.20;85.50
13521;DHT22;6832;51.186;3.236;2022-10-16T08:47:49;18.50;84.60
13521;DHT22;6832;51.186;3.236;2022-10-16T08:50:23;18.70;84.20
13521;DHT22;6832;51.186;3.236;2022-10-16T08:52:54;18.90;83.90
13521;DHT22;6832;51.186;3.236;2022-10-16T08:55:30;19.00;84.00
13521;DHT22;6832;51.186;3.236;2022-10-16T08:58:00;19.20;82.40
13521;DHT22;6832;51.186;3.236;2022-10-16T09:00:37;19.40;81.70
13521;DHT22;6832;51.186;3.236;2022-10-16T09:03:15;19.50;80.00
13521;DHT22;6832;51.186;3.236;2022-10-16T09:05:54;19.70;79.20
13521;DHT22;6832;51.186;3.236;2022-10-16T09:08:30;19.80;78.80
13521;DHT22;6832;51.186;3.236;2022-10-16T09:11:08;19.90;78.30
13521;DHT22;6832;51.186;3.236;2022-10-16T09:13:47;19.90;77.70
13521;DHT22;6832;51.186;3.236;2022-10-16T09:16:22;20.00;78.00
13521;DHT22;6832;51.186;3.236;2022-10-16T09:18:58;20.00;77.50
13521;DHT22;6832;51.186;3.236;2022-10-16T09:21:29;20.10;77.10
13521;DHT22;6832;51.186;3.236;2022-10-16T09:23:59;20.10;77.50
13521;DHT22;6832;51.186;3.236;2022-10-16T09:26:27;20.20;77.40
13521;DHT22;6832;51.186;3.236;2022-10-16T09:28:55;20.20;77.20
13521;DHT22;6832;51.186;3.236;2022-10-16T09:31:26;20.30;77.50
13521;DHT22;6832;51.186;3.236;2022-10-16T09:33:58;20.40;77.40
13521;DHT22;6832;51.186;3.236;2022-10-16T09:36:27;20.40;76.70
13521;DHT22;6832;51.186;3.236;2022-10-16T09:39:04;20.50;76.50
13521;DHT22;6832;51.186;3.236;2022-10-16T09:41:34;20.60;76.40
13521;DHT22;6832;51.186;3.236;2022-10-16T09:44:04;20.70;76.60
13521;DHT22;6832;51.186;3.236;2022-10-16T09:46:35;20.80;77.20
13521;DHT22;6832;51.186;3.236;2022-10-16T09:49:20;21.00;76.70
13521;DHT22;6832;51.186;3.236;2022-10-16T09:51:48;21.10;76.50
13521;DHT22;6832;51.186;3.236;2022-10-16T09:54:17;21.30;77.30
13521;DHT22;6832;51.186;3.236;2022-10-16T09:56:47;21.50;76.30
13521;DHT22;6832;51.186;3.236;2022-10-16T09:59:19;21.70;75.20
13521;DHT22;6832;51.186;3.236;2022-10-16T10:01:50;21.80;74.30
13521;DHT22;6832;51.186;3.236;2022-10-16T10:04:38;22.00;73.20
13521;DHT22;6832;51.186;3.236;2022-10-16T10:07:06;22.20;72.20
13521;DHT22;6832;51.186;3.236;2022-10-16T10:09:44;22.30;73.40
13521;DHT22;6832;51.186;3.236;2022-10-16T10:12:19;22.50;72.60
13521;DHT22;6832;51.186;3.236;2022-10-16T10:14:51;22.60;71.90
13521;DHT22;6832;51.186;3.236;2022-10-16T10:17:24;22.70;70.90
13521;DHT22;6832;51.186;3.236;2022-10-16T10:19:53;22.80;70.60
13521;DHT22;6832;51.186;3.236;2022-10-16T10:22:29;22.90;70.50
13521;DHT22;6832;51.186;3.236;2022-10-16T10:25:18;23.00;69.70
13521;DHT22;6832;51.186;3.236;2022-10-16T10:31:12;23.20;67.60
13521;DHT22;6832;51.186;3.236;2022-10-16T10:33:47;23.30;68.40
13521;DHT22;6832;51.186;3.236;2022-10-16T10:36:27;23.30;68.10
13521;DHT22;6832;51.186;3.236;2022-10-16T10:38:59;23.40;67.60
13521;DHT22;6832;51.186;3.236;2022-10-16T10:44:55;23.50;66.80
13521;DHT22;6832;51.186;3.236;2022-10-16T10:47:35;23.50;66.30
13521;DHT22;6832;51.186;3.236;2022-10-16T10:50:18;23.60;66.00
13521;DHT22;6832;51.186;3.236;2022-10-16T10:52:54;23.60;65.40
13521;DHT22;6832;51.186;3.236;2022-10-16T10:55:32;23.60;66.10
13521;DHT22;6832;51.186;3.236;2022-10-16T11:01:09;23.60;64.70
13521;DHT22;6832;51.186;3.236;2022-10-16T11:03:58;23.70;65.40
13521;DHT22;6832;51.186;3.236;2022-10-16T11:06:33;23.60;63.80
13521;DHT22;6832;51.186;3.236;2022-10-16T11:09:08;23.60;64.40
13521;DHT22;6832;51.186;3.236;2022-10-16T11:11:41;23.60;63.40
13521;DHT22;6832;51.186;3.236;2022-10-16T11:14:16;23.50;64.10
13521;DHT22;6832;51.186;3.236;2022-10-16T11:16:51;23.50;63.70
13521;DHT22;6832;51.186;3.236;2022-10-16T11:19:29;23.40;63.40
13521;DHT22;6832;51.186;3.236;2022-10-16T11:22:04;23.40;64.00
13521;DHT22;6832;51.186;3.236;2022-10-16T11:24:39;23.30;64.10
13521;DHT22;6832;51.186;3.236;2022-10-16T11:27:12;23.30;64.10
13521;DHT22;6832;51.186;3.236;2022-10-16T11:29:46;23.30;64.20
13521;DHT22;6832;51.186;3.236;2022-10-16T11:32:21;23.30;64.40
13521;DHT22;6832;51.186;3.236;2022-10-16T11:34:51;23.30;63.60
13521;DHT22;6832;51.186;3.236;2022-10-16T11:37:25;23.30;64.10
13521;DHT22;6832;51.186;3.236;2022-10-16T11:39:58;23.30;63.60
13521;DHT22;6832;51.186;3.236;2022-10-16T11:42:30;23.30;64.00
13521;DHT22;6832;51.186;3.236;2022-10-16T11:45:03;23.40;64.60
13521;DHT22;6832;51.186;3.236;2022-10-16T11:47:37;23.50;64.30
13521;DHT22;6832;51.186;3.236;2022-10-16T11:50:17;23.50;64.30
13521;DHT22;6832;51.186;3.236;2022-10-16T11:52:54;23.60;62.90
13521;DHT22;6832;51.186;3.236;2022-10-16T11:55:24;23.70;63.90
13521;DHT22;6832;51.186;3.236;2022-10-16T11:58:01;23.80;64.30
13521;DHT22;6832;51.186;3.236;2022-10-16T12:00:34;23.80;63.50
13521;DHT22;6832;51.186;3.236;2022-10-16T12:03:17;23.90;62.80
13521;DHT22;6832;51.186;3.236;2022-10-16T12:05:58;24.10;62.50
13521;DHT22;6832;51.186;3.236;2022-10-16T12:08:28;24.10;61.50
13521;DHT22;6832;51.186;3.236;2022-10-16T12:11:07;24.20;62.20
13521;DHT22;6832;51.186;3.236;2022-10-16T12:13:37;24.30;61.50
13521;DHT22;6832;51.186;3.236;2022-10-16T12:16:29;24.40;61.80
13521;DHT22;6832;51.186;3.236;2022-10-16T12:19:12;24.40;60.70
13521;DHT22;6832;51.186;3.236;2022-10-16T12:21:39;24.50;60.40
13521;DHT22;6832;51.186;3.236;2022-10-16T12:24:21;24.50;61.30
13521;DHT22;6832;51.186;3.236;2022-10-16T12:26:50;24.50;59.40
13521;DHT22;6832;51.186;3.236;2022-10-16T12:29:30;24.60;60.10
13521;DHT22;6832;51.186;3.236;2022-10-16T12:31:59;24.60;59.50
13521;DHT22;6832;51.186;3.236;2022-10-16T12:34:38;24.60;59.90
13521;DHT22;6832;51.186;3.236;2022-10-16T12:37:14;24.70;59.30
13521;DHT22;6832;51.186;3.236;2022-10-16T12:39:45;24.70;59.20
13521;DHT22;6832;51.186;3.236;2022-10-16T12:42:32;24.80;59.30
13521;DHT22;6832;51.186;3.236;2022-10-16T12:45:01;24.80;58.30
13521;DHT22;6832;51.186;3.236;2022-10-16T12:47:46;24.80;59.50
13521;DHT22;6832;51.186;3.236;2022-10-16T12:50:31;24.80;59.30
13521;DHT22;6832;51.186;3.236;2022-10-16T12:53:04;24.90;58.70
13521;DHT22;6832;51.186;3.236;2022-10-16T12:55:44;24.90;59.30
13521;DHT22;6832;51.186;3.236;2022-10-16T12:58:25;24.90;58.30
13521;DHT22;6832;51.186;3.236;2022-10-16T13:01:04;24.90;58.90
13521;DHT22;6832;51.186;3.236;2022-10-16T13:04:13;24.90;59.10
13521;DHT22;6832;51.186;3.236;2022-10-16T13:06:48;24.90;58.40
13521;DHT22;6832;51.186;3.236;2022-10-16T13:09:39;25.00;58.80
13521;DHT22;6832;51.186;3.236;2022-10-16T13:12:20;25.00;58.60
13521;DHT22;6832;51.186;3.236;2022-10-16T13:15:05;25.00;58.40
13521;DHT22;6832;51.186;3.236;2022-10-16T13:17:42;25.10;58.00
13521;DHT22;6832;51.186;3.236;2022-10-16T13:20:17;25.10;58.50
13521;DHT22;6832;51.186;3.236;2022-10-16T13:22:54;25.10;58.10
13521;DHT22;6832;51.186;3.236;2022-10-16T13:25:31;25.10;57.50
13521;DHT22;6832;51.186;3.236;2022-10-16T13:28:04;25.00;57.40
13521;DHT22;6832;51.186;3.236;2022-10-16T13:30:36;25.00;57.20
13521;DHT22;6832;51.186;3.236;2022-10-16T13:33:16;24.90;57.50
13521;DHT22;6832;51.186;3.236;2022-10-16T13:35:49;24.90;57.20
13521;DHT22;6832;51.186;3.236;2022-10-16T13:38:18;24.80;57.70
13521;DHT22;6832;51.186;3.236;2022-10-16T13:40:50;24.80;58.00
13521;DHT22;6832;51.186;3.236;2022-10-16T13:43:20;24.80;57.60
13521;DHT22;6832;51.186;3.236;2022-10-16T13:45:56;24.80;57.60
13521;DHT22;6832;51.186;3.236;2022-10-16T13:48:23;24.70;57.20
13521;DHT22;6832;51.186;3.236;2022-10-16T13:51:04;24.70;57.90
13521;DHT22;6832;51.186;3.236;2022-10-16T13:53:33;24.70;57.40
13521;DHT22;6832;51.186;3.236;2022-10-16T13:56:04;24.70;57.50
13521;DHT22;6832;51.186;3.236;2022-10-16T13:58:33;24.70;57.40
13521;DHT22;6832;51.186;3.236;2022-10-16T14:01:03;24.70;57.20
13521;DHT22;6832;51.186;3.236;2022-10-16T14:03:33;24.60;57.30
13521;DHT22;6832;51.186;3.236;2022-10-16T14:06:03;24.60;57.60
13521;DHT22;6832;51.186;3.236;2022-10-16T14:08:33;24.60;57.80
13521;DHT22;6832;51.186;3.236;2022-10-16T14:11:02;24.50;57.80
13521;DHT22;6832;51.186;3.236;2022-10-16T14:13:34;24.50;57.70
13521;DHT22;6832;51.186;3.236;2022-10-16T14:16:07;24.50;57.60
13521;DHT22;6832;51.186;3.236;2022-10-16T14:18:37;24.40;57.80
13521;DHT22;6832;51.186;3.236;2022-10-16T14:21:06;24.40;57.90
13521;DHT22;6832;51.186;3.236;2022-10-16T14:23:35;24.40;58.00
13521;DHT22;6832;51.186;3.236;2022-10-16T14:26:16;24.40;57.90
13521;DHT22;6832;51.186;3.236;2022-10-16T14:28:46;24.40;57.70
13521;DHT22;6832;51.186;3.236;2022-10-16T14:31:30;24.30;57.90
13521;DHT22;6832;51.186;3.236;2022-10-16T14:34:01;24.30;57.80
13521;DHT22;6832;51.186;3.236;2022-10-16T14:36:28;24.30;58.60
13521;DHT22;6832;51.186;3.236;2022-10-16T14:39:01;24.30;58.80
13521;DHT22;6832;51.186;3.236;2022-10-16T14:41:31;24.30;59.00
13521;DHT22;6832;51.186;3.236;2022-10-16T14:44:03;24.20;59.00
13521;DHT22;6832;51.186;3.236;2022-10-16T14:46:36;24.20;59.00
13521;DHT22;6832;51.186;3.236;2022-10-16T14:49:15;24.20;58.90
13521;DHT22;6832;51.186;3.236;2022-10-16T14:51:44;24.20;58.40
13521;DHT22;6832;51.186;3.236;2022-10-16T14:54:12;24.20;58.70
13521;DHT22;6832;51.186;3.236;2022-10-16T14:56:46;24.20;59.00
13521;DHT22;6832;51.186;3.236;2022-10-16T14:59:19;24.10;58.70
13521;DHT22;6832;51.186;3.236;2022-10-16T15:01:49;24.10;58.80
13521;DHT22;6832;51.186;3.236;2022-10-16T15:04:16;24.10;58.90
13521;DHT22;6832;51.186;3.236;2022-10-16T15:06:44;24.10;59.10
13521;DHT22;6832;51.186;3.236;2022-10-16T15:09:11;24.00;58.90
13521;DHT22;6832;51.186;3.236;2022-10-16T15:11:40;23.90;58.90
13521;DHT22;6832;51.186;3.236;2022-10-16T15:14:11;23.90;58.90
13521;DHT22;6832;51.186;3.236;2022-10-16T15:16:39;23.90;58.80
13521;DHT22;6832;51.186;3.236;2022-10-16T15:19:06;23.90;58.80
13521;DHT22;6832;51.186;3.236;2022-10-16T15:21:33;23.80;58.70
13521;DHT22;6832;51.186;3.236;2022-10-16T15:24:01;23.80;58.50
13521;DHT22;6832;51.186;3.236;2022-10-16T15:26:29;23.60;58.10
13521;DHT22;6832;51.186;3.236;2022-10-16T15:28:56;23.50;58.00
13521;DHT22;6832;51.186;3.236;2022-10-16T15:31:23;23.50;58.20
13521;DHT22;6832;51.186;3.236;2022-10-16T15:33:53;23.30;58.10
13521;DHT22;6832;51.186;3.236;2022-10-16T15:36:27;23.20;58.20
13521;DHT22;6832;51.186;3.236;2022-10-16T15:38:55;23.10;58.10
13521;DHT22;6832;51.186;3.236;2022-10-16T15:41:22;23.00;58.20
13521;DHT22;6832;51.186;3.236;2022-10-16T15:43:49;23.00;58.20
13521;DHT22;6832;51.186;3.236;2022-10-16T15:46:19;22.80;58.10
13521;DHT22;6832;51.186;3.236;2022-10-16T15:48:46;22.80;58.40
13521;DHT22;6832;51.186;3.236;2022-10-16T15:51:15;22.70;58.40
13521;DHT22;6832;51.186;3.236;2022-10-16T15:53:43;22.70;58.70
13521;DHT22;6832;51.186;3.236;2022-10-16T15:56:12;22.60;58.90
13521;DHT22;6832;51.186;3.236;2022-10-16T15:58:40;22.50;59.20
13521;DHT22;6832;51.186;3.236;2022-10-16T16:01:07;22.50;59.30
13521;DHT22;6832;51.186;3.236;2022-10-16T16:03:36;22.50;59.40
13521;DHT22;6832;51.186;3.236;2022-10-16T16:06:06;22.50;59.80
13521;DHT22;6832;51.186;3.236;2022-10-16T16:08:35;22.40;59.70
13521;DHT22;6832;51.186;3.236;2022-10-16T16:11:03;22.40;59.70
13521;DHT22;6832;51.186;3.236;2022-10-16T16:13:31;22.40;59.70
13521;DHT22;6832;51.186;3.236;2022-10-16T16:15:58;22.40;60.20
13521;DHT22;6832;51.186;3.236;2022-10-16T16:18:28;22.30;60.00
13521;DHT22;6832;51.186;3.236;2022-10-16T16:20:56;22.30;60.50
13521;DHT22;6832;51.186;3.236;2022-10-16T16:23:23;22.30;60.30
13521;DHT22;6832;51.186;3.236;2022-10-16T16:26:05;22.30;60.30
13521;DHT22;6832;51.186;3.236;2022-10-16T16:28:33;22.30;60.60
13521;DHT22;6832;51.186;3.236;2022-10-16T16:31:01;22.30;60.50
13521;DHT22;6832;51.186;3.236;2022-10-16T16:33:28;22.30;60.40
13521;DHT22;6832;51.186;3.236;2022-10-16T16:35:57;22.30;60.40
13521;DHT22;6832;51.186;3.236;2022-10-16T16:38:31;22.20;60.60
13521;DHT22;6832;51.186;3.236;2022-10-16T16:40:58;22.20;60.90